• Join FlightAware (Why Join?)
  • Login
  • US Flag 
03:47AM EDT


 

Airport Tracker/Info


-or-


 

Live Flight TrackerFlight Track Log ✈ N45NS ✈ 08-Mar-2014 ✈ KBJJ - KSTL

Flight Track Log - Related Links

Times and Time Zones

All times are in EST time to prevent confusion due to time zone crossing. See the N45NS flight status page for this flight to view local times or setup timezone preferences in your user account.

Time Position Orientation Groundspeed Altitude Reporting Facility
EST Latitude Longitude Course Direction KTS MPH feet Rate Location/Type
07:12AM 40.8378 -82.0000 246° West 215 247 6,300  Level Indianapolis Center
07:13AM 40.8200 -82.0825 254° West 232 267 8,000 1,560 Climbing Cleveland Center
07:14AM 40.8011 -82.1694 254° West 239 275 9,500 2,160 Climbing Indianapolis Center
07:15AM 40.7817 -82.2597 254° West 248 285 12,300 2,520 Climbing Indianapolis Center
07:16AM 40.7611 -82.3542 254° West 259 298 14,600 2,340 Climbing Indianapolis Center
07:17AM 40.7082 -82.5922 246° West  Level FlightAware Approximate
07:17AM 40.7406 -82.4506 254° West 266 306 17,100  Level Indianapolis Center
07:18AM 40.7192 -82.5508 254° West 275 316 19,500 2,340 Climbing Indianapolis Center
07:19AM 40.6961 -82.6536 254° West 284 327 21,900 2,400 Climbing Indianapolis Center
07:20AM 40.6731 -82.7592 254° West 291 335 24,400 2,460 Climbing Indianapolis Center
07:21AM 40.6492 -82.8664 254° West 297 342 27,000 2,400 Climbing Indianapolis Center
07:22AM 40.6258 -82.9728 254° West 298 343 29,400 2,280 Climbing Indianapolis Center
07:23AM 40.6031 -83.0769 254° West 298 343 31,700 2,160 Climbing Indianapolis Center
07:24AM 40.5800 -83.1811 254° West 296 341 33,800 1,860 Climbing Indianapolis Center
07:25AM 40.5578 -83.2808 254° West 290 334 35,600 1,560 Climbing Indianapolis Center
07:26AM 40.5344 -83.3808 253° West 289 333 37,000 1,320 Climbing Indianapolis Center
07:27AM 40.5114 -83.4825 253° West 290 334 38,300 1,260 Climbing Indianapolis Center
07:28AM 40.4892 -83.5831 254° West 290 334 39,600 780 Climbing Indianapolis Center
07:29AM 40.4664 -83.6806 253° West 286 329 40,000 180 Climbing Indianapolis Center
07:30AM 40.4422 -83.7856 253° West 295 339 40,000  Level Indianapolis Center
07:31AM 40.4167 -83.9014 254° West 325 374 40,000  Level Indianapolis Center
07:32AM 40.3831 -84.0444 253° West 338 389 40,000  Level Indianapolis Center
07:33AM 40.3542 -84.1672 253° West 350 403 40,000  Level Indianapolis Center
07:34AM 40.3250 -84.2900 253° West 351 404 40,000  Level Indianapolis Center
07:35AM 40.2958 -84.4128 253° West 353 406 40,000  Level Indianapolis Center
07:36AM 40.2664 -84.5350 253° West 353 406 40,000  Level Indianapolis Center
07:37AM 40.2389 -84.6578 254° West 353 406 40,000  Level Indianapolis Center
07:38AM 40.2086 -84.7789 252° West 353 406 40,000  Level Indianapolis Center
07:39AM 40.1756 -84.9100 252° West 353 406 40,000  Level Indianapolis Center
07:40AM 40.1478 -85.0308 253° West 352 405 40,000  Level Indianapolis Center
07:41AM 40.1192 -85.1531 253° West 351 404 40,000  Level Indianapolis Center
07:42AM 40.0886 -85.2733 252° West 351 404 40,000  Level Indianapolis Center
07:44AM 40.0589 -85.3933 252° West 351 404 40,000  Level Indianapolis Center
07:45AM 40.0297 -85.5150 253° West 351 404 40,000  Level Indianapolis Center
07:46AM 39.9931 -85.6597 252° West 351 404 40,000  Level Indianapolis Center
07:47AM 39.9633 -85.7808 252° West 351 404 40,000  Level Indianapolis Center
07:48AM 39.9333 -85.9017 252° West 351 404 40,000  Level Indianapolis Center
07:49AM 39.9022 -86.0222 251° West 351 404 40,000  Level Indianapolis Center
07:50AM 39.8719 -86.1422 252° West 351 404 40,000  Level Indianapolis Center
07:51AM 39.8378 -86.2733 251° West 351 404 40,000  Level Indianapolis Center
07:52AM 39.8075 -86.3944 252° West 351 404 40,000  Level Indianapolis Center
07:53AM 39.7767 -86.5200 252° West 351 404 40,000  Level Indianapolis Center
07:54AM 39.7469 -86.6422 252° West 352 405 40,000  Level Indianapolis Center
07:55AM 39.7164 -86.7642 252° West 354 407 40,000  Level Indianapolis Center
07:56AM 39.6867 -86.8861 252° West 354 407 40,000  Level Indianapolis Center
07:57AM 39.6558 -87.0086 252° West 356 410 40,000 -60 Level Indianapolis Center
07:58AM 39.6253 -87.1319 252° West 356 410 39,900 -540 Descending Indianapolis Center
07:59AM 39.5931 -87.2567 252° West 361 415 38,900 -960 Descending Indianapolis Center
08:00AM 39.5631 -87.3803 253° West 361 415 38,000 -960 Descending Indianapolis Center
08:01AM 39.5322 -87.5011 252° West 361 415 37,000 -1,020 Descending Indianapolis Center
08:02AM 39.4964 -87.6444 252° West 357 411 36,000 -1,440 Descending Indianapolis Center
08:03AM 39.4647 -87.7619 251° West 351 404 34,100 -1,860 Descending Indianapolis Center
08:04AM 39.4347 -87.8822 252° West 351 404 32,200 -1,920 Descending Indianapolis Center
08:05AM 39.4022 -88.0042 251° West 353 406 30,200 -1,140 Descending Indianapolis Center
08:06AM 39.3714 -88.1261 252° West 355 409 30,000 -120 Descending Indianapolis Center
08:07AM 39.3439 -88.2347 252° West 369 425 30,000  Level Kansas City Center
08:08AM 39.3092 -88.3625 251° West 372 428 30,000 -300 Level Kansas City Center
08:09AM 39.2733 -88.4922 250° West 379 436 29,400 -1,140 Descending Kansas City Center
08:10AM 39.2447 -88.6017 251° West 380 437 27,700 -1,740 Descending Kansas City Center
08:11AM 39.2114 -88.7233 251° West 368 423 25,900 -2,340 Descending Kansas City Center
08:12AM 39.1731 -88.8689 251° West 361 415 23,000 -3,000 Descending Kansas City Center
08:13AM 39.1403 -88.9914 251° West 361 415 19,800 -2,760 Descending Kansas City Center
08:14AM 39.1092 -89.1053 251° West 342 394 17,400 -2,340 Descending Kansas City Center
08:15AM 39.0806 -89.2125 251° West 318 366 15,100 -2,220 Descending Kansas City Center
08:16AM 39.0586 -89.3197 255° West 314 361 13,000 -2,040 Descending Kansas City Center
08:17AM 39.0356 -89.4206 254° West 297 342 11,100 -1,440 Descending Kansas City Center
08:18AM 39.0136 -89.5203 254° West 292 336 10,100 -600 Descending Kansas City Center
08:19AM 38.9803 -89.6172 246° West 295 339 10,000 -120 Descending Kansas City Center
08:20AM 38.9256 -89.6844 224° Southwest 270 311 9,900 -960 Descending Kansas City Center
08:21AM 38.8683 -89.7542 224° Southwest 278 320 8,100 -1,860 Descending Kansas City Center
08:22AM 38.8147 -89.8217 224° Southwest 279 321 6,200 -1,080 Descending Kansas City Center
08:23AM 38.7814 -89.8931 239° Southwest 257 296 6,000 -540 Descending Kansas City Center
08:24AM 38.7417 -89.9914 243° Southwest 254 292 5,200 -1,200 Descending Kansas City Center
08:25AM 38.7061 -90.0722 241° Southwest 255 293 3,600 -840 Descending Kansas City Center
08:26AM 38.6694 -90.1486 238° Southwest 255 293 3,500 -420 Descending Kansas City Center
08:27AM 38.6856 -90.2325 284° West 251 289 2,800 -1,080 Descending Kansas City Center
08:28AM 38.7175 -90.2972 302° West 224 258 1,400 -1,080 Descending Kansas City Center
08:29AM 38.7375 -90.3361 303° West 162 186 700 -420 Descending Kansas City Center
08:30AM 38.7561 -90.3728 303° West 155 178 600 -120 Descending Kansas City Center
08:32AM 38.7487 -90.3700 165° South  Level Estimated